Time;durP1;ratioP1;P1;durP2;ratioP2;P2;SDS_P1;SDS_P2;PMS_P1;PMS_P2;Temp;Humidity;BMP_temperature;BMP_pressure;BME280_temperature;BME280_humidity;BME280_pressure;Samples;Min_cycle;Max_cycle;Signal;HPM_P1;HPM_P2
2021/08/12 00:03:24;;;;;;;;;;;19.50;99.90;;;18.29;85.19;96079.63;10291494;28;2370;-79
2021/08/12 00:08:27;;;;;;;;;;;19.40;99.90;;;18.21;85.49;96080.41;10285184;28;2462;-79
2021/08/12 00:13:30;;;;;;;;;;;19.30;99.90;;;18.15;85.88;96076.22;10298161;28;2261;-77
2021/08/12 00:18:33;;;;;;;;;;;19.20;99.90;;;18.04;86.97;96072.97;10298393;28;2365;-77
2021/08/12 00:23:36;;;;;;;;;;;19.10;99.90;;;18.12;87.00;96076.84;10283559;28;2444;-78
2021/08/12 00:28:38;;;;;;;;;;;19.10;99.90;;;18.08;86.30;96079.41;10292017;28;2401;-77
2021/08/12 00:33:41;;;;;;;;;;;19.10;99.90;;;18.03;87.16;96095.06;10277407;28;2436;-77
2021/08/12 00:38:44;;;;;;;;;;;19.00;99.90;;;18.06;87.36;96095.22;10266601;28;2495;-78
2021/08/12 00:43:47;;;;;;;;;;;19.00;99.90;;;18.09;86.59;96091.88;10281161;28;2724;-78
2021/08/12 00:48:49;;;;;;;;;;;19.10;99.90;;;18.05;87.52;96090.88;10282660;28;2738;-79
2021/08/12 00:53:52;;;;;;;;;;;19.10;99.90;;;17.86;88.88;96082.16;10263682;28;2558;-78
2021/08/12 00:58:55;;;;;;;;;;;19.00;99.90;;;17.74;89.53;96085.44;10283238;28;2531;-77
2021/08/12 01:03:58;;;;;;;;;;;18.90;99.90;;;17.78;89.53;96086.44;10292765;28;2650;-79
2021/08/12 01:09:00;;;;;;;;;;;18.80;99.90;;;17.92;88.63;96088.28;10302851;28;2326;-77
2021/08/12 01:14:03;;;;;;;;;;;18.90;99.90;;;17.78;89.86;96091.09;10279935;28;2367;-78
2021/08/12 01:19:06;;;;;;;;;;;18.80;99.90;;;17.62;90.78;96092.53;10292416;28;2520;-79
2021/08/12 01:24:09;;;;;;;;;;;18.80;99.90;;;17.54;91.58;96097.63;10314395;28;2316;-80
2021/08/12 01:29:12;;;;;;;;;;;18.60;99.90;;;17.54;92.35;96102.25;10286290;28;2314;-78
2021/08/12 01:34:14;;;;;;;;;;;18.50;99.90;;;17.50;92.24;96093.13;10282135;28;2302;-78
2021/08/12 01:39:17;;;;;;;;;;;18.50;99.90;;;17.41;91.44;96092.25;10268832;28;2590;-78
2021/08/12 01:44:20;;;;;;;;;;;18.50;99.90;;;17.29;93.93;96088.16;10273318;28;2372;-77
2021/08/12 01:49:23;;;;;;;;;;;18.40;99.90;;;17.21;94.64;96096.25;10294355;28;2344;-78
2021/08/12 01:54:25;;;;;;;;;;;18.30;99.90;;;17.11;94.21;96097.28;10290773;28;2378;-78
2021/08/12 01:59:28;;;;;;;;;;;18.20;99.90;;;17.11;94.97;96100.00;10290490;28;2541;-78
2021/08/12 02:04:31;;;;;;;;;;;18.20;99.90;;;17.09;95.01;96102.25;10309146;28;2326;-79
2021/08/12 02:09:33;;;;;;;;;;;18.10;99.90;;;17.02;95.31;96096.44;10320124;28;2429;-79
2021/08/12 02:14:36;;;;;;;;;;;18.10;99.90;;;16.96;96.59;96097.66;10333703;28;2196;-79
2021/08/12 02:19:39;;;;;;;;;;;18.00;99.90;;;17.07;95.31;96095.53;10323992;28;1980;-79
2021/08/12 02:24:42;;;;;;;;;;;18.00;99.90;;;17.03;94.77;96079.03;10322774;28;2378;-77
2021/08/12 02:29:45;;;;;;;;;;;18.00;99.90;;;16.99;95.29;96076.13;10322902;28;2369;-80
2021/08/12 02:34:47;;;;;;;;;;;17.90;99.90;;;16.93;95.37;96071.13;10347975;28;2263;-78
2021/08/12 02:39:50;;;;;;;;;;;17.90;99.90;;;16.86;95.80;96073.44;10327878;28;2104;-81
2021/08/12 02:44:53;;;;;;;;;;;17.90;99.90;;;16.79;96.97;96081.19;10340304;28;2175;-80
2021/08/12 02:49:56;;;;;;;;;;;17.80;99.90;;;16.72;97.12;96079.69;10324866;28;1883;-81
2021/08/12 02:54:58;;;;;;;;;;;17.70;99.90;;;16.78;97.21;96079.59;10322590;28;1899;-81
2021/08/12 03:00:01;;;;;;;;;;;17.70;99.90;;;16.63;97.43;96084.22;10332214;28;2397;-81
2021/08/12 03:05:04;;;;;;;;;;;17.70;99.90;;;16.54;97.99;96085.22;10324803;28;2391;-78
2021/08/12 03:10:06;;;;;;;;;;;17.60;99.90;;;16.45;99.35;96088.66;10323876;28;2203;-78
2021/08/12 03:15:09;;;;;;;;;;;17.50;99.90;;;16.35;100.00;96083.47;10305718;28;2331;-78
2021/08/12 03:20:12;;;;;;;;;;;17.40;99.90;;;16.30;100.00;96090.91;10327354;28;1822;-79
2021/08/12 03:25:15;;;;;;;;;;;17.30;99.90;;;16.24;100.00;96087.47;10329414;28;1992;-80
2021/08/12 03:30:17;;;;;;;;;;;17.30;99.90;;;16.25;100.00;96088.28;10320441;28;2300;-81
2021/08/12 03:35:20;;;;;;;;;;;17.20;99.90;;;16.19;100.00;96096.53;10325902;28;2318;-81
2021/08/12 03:40:23;;;;;;;;;;;17.20;99.90;;;16.15;100.00;96090.06;10337314;28;2247;-79
2021/08/12 03:45:25;;;;;;;;;;;17.20;99.90;;;16.19;100.00;96091.09;10327209;28;2255;-79
2021/08/12 03:50:28;;;;;;;;;;;17.20;99.90;;;16.33;99.34;96091.09;10316256;28;1950;-79
2021/08/12 03:55:31;;;;;;;;;;;17.20;99.90;;;16.25;100.00;96088.28;10325902;28;2417;-81
2021/08/12 04:00:34;;;;;;;;;;;17.20;99.90;;;16.21;100.00;96085.34;10310186;28;2294;-80
2021/08/12 04:05:37;;;;;;;;;;;17.20;99.90;;;16.19;100.00;96093.81;10320236;28;2329;-79
2021/08/12 04:10:39;;;;;;;;;;;17.20;99.90;;;16.29;100.00;96090.09;10318561;28;1973;-77
2021/08/12 04:15:42;;;;;;;;;;;17.20;99.90;;;16.25;100.00;96088.28;10331847;28;1675;-79
2021/08/12 04:20:45;;;;;;;;;;;17.20;99.90;;;16.20;100.00;96095.41;10300430;28;1744;-77
2021/08/12 04:25:48;;;;;;;;;;;17.20;99.90;;;16.33;100.00;96098.44;10315424;28;2365;-76
2021/08/12 04:30:50;;;;;;;;;;;17.20;99.90;;;16.44;100.00;96091.69;10287862;28;2632;-77
2021/08/12 04:35:53;;;;;;;;;;;17.30;99.90;;;16.66;97.76;96082.81;10320718;28;2070;-77
2021/08/12 04:40:56;;;;;;;;;;;17.40;99.90;;;16.84;97.00;96091.94;10280688;28;2101;-79
2021/08/12 04:45:59;;;;;;;;;;;17.50;99.90;;;17.21;94.16;96093.56;10304440;28;2177;-76
2021/08/12 04:51:02;;;;;;;;;;;17.70;99.90;;;17.57;92.01;96098.94;10284954;28;2336;-77
2021/08/12 04:56:05;;;;;;;;;;;18.00;99.90;;;17.88;90.46;96112.59;10284842;28;2389;-77
2021/08/12 05:01:08;;;;;;;;;;;18.30;99.90;;;18.21;88.23;96098.66;10284162;28;2268;-77
2021/08/12 05:06:14;;;;;;;;;;;18.60;99.90;;;18.61;85.74;96104.84;10283913;28;2312;-77
2021/08/12 05:11:17;;;;;;;;;;;19.00;99.90;;;18.61;86.07;96096.69;10284408;28;2412;-78
2021/08/12 05:16:20;;;;;;;;;;;19.20;99.90;;;19.01;83.46;96100.13;10291498;28;2322;-78
2021/08/12 05:21:23;;;;;;;;;;;19.50;99.90;;;19.32;81.27;96097.25;10298347;28;2404;-79
2021/08/12 05:26:25;;;;;;;;;;;19.70;99.90;;;19.97;77.46;96098.13;10307991;28;2577;-79
2021/08/12 05:31:28;;;;;;;;;;;20.10;99.90;;;20.22;76.16;96093.72;10296207;28;2245;-80
2021/08/12 05:36:31;;;;;;;;;;;20.50;99.90;;;20.37;75.02;96090.47;10305640;28;2422;-80
2021/08/12 05:41:34;;;;;;;;;;;20.70;99.90;;;20.50;74.87;96094.91;10300555;28;2699;-81
2021/08/12 05:46:36;;;;;;;;;;;20.90;99.90;;;20.68;73.54;96090.16;10310846;28;2491;-79
2021/08/12 05:51:39;;;;;;;;;;;21.00;99.90;;;21.10;72.11;96101.13;10285682;28;2518;-76
2021/08/12 05:56:42;;;;;;;;;;;21.30;99.90;;;21.34;71.20;96095.03;10265528;28;2337;-79
2021/08/12 06:01:45;;;;;;;;;;;21.60;99.90;;;21.57;70.41;96106.41;10275636;28;2424;-80
2021/08/12 06:06:48;;;;;;;;;;;21.90;99.90;;;21.56;71.18;96105.59;10269565;28;2648;-78
2021/08/12 06:11:51;;;;;;;;;;;22.00;99.90;;;22.05;68.59;96108.50;10290485;28;2663;-78
2021/08/12 06:16:53;;;;;;;;;;;22.30;99.90;;;22.26;67.81;96108.44;10280750;28;2674;-78
2021/08/12 06:21:56;;;;;;;;;;;22.50;99.90;;;22.25;67.57;96117.78;10282420;28;2631;-77
2021/08/12 06:26:59;;;;;;;;;;;22.70;99.90;;;22.13;68.12;96121.31;10277991;28;2367;-77
2021/08/12 06:32:01;;;;;;;;;;;22.70;99.90;;;22.32;67.74;96128.19;10296077;28;2619;-77
2021/08/12 06:37:04;;;;;;;;;;;22.80;99.90;;;22.28;68.19;96113.59;10285891;28;2384;-78
2021/08/12 06:42:08;;;;;;;;;;;23.00;99.90;;;22.66;66.06;96111.31;10314676;28;2365;-80
2021/08/12 06:47:10;;;;;;;;;;;23.20;99.90;;;22.67;65.64;96123.88;10305296;28;2452;-80
2021/08/12 06:52:14;;;;;;;;;;;23.40;99.90;;;23.02;65.55;96128.91;10285925;28;2340;-78
2021/08/12 06:57:17;;;;;;;;;;;23.50;99.90;;;23.54;62.80;96122.63;10302678;28;2363;-81
2021/08/12 07:02:20;;;;;;;;;;;23.80;99.90;;;24.25;60.07;96127.34;10294296;28;2431;-78
2021/08/12 07:07:23;;;;;;;;;;;24.20;99.90;;;24.79;58.45;96126.72;10293223;28;2413;-81
2021/08/12 07:12:25;;;;;;;;;;;24.70;99.90;;;25.30;56.47;96131.44;10285637;28;2695;-81
2021/08/12 07:17:28;;;;;;;;;;;25.10;99.90;;;24.45;57.77;96141.19;10297932;28;2379;-79
2021/08/12 07:22:31;;;;;;;;;;;25.30;99.90;;;24.68;58.07;96135.88;10290154;28;2408;-80
2021/08/12 07:27:34;;;;;;;;;;;25.10;99.90;;;24.83;56.22;96123.28;10295728;28;2289;-79
2021/08/12 07:32:37;;;;;;;;;;;25.20;99.90;;;24.49;57.28;96122.84;10293755;28;2662;-81
2021/08/12 07:37:40;;;;;;;;;;;25.10;99.90;;;24.96;56.57;96122.00;10287072;28;2505;-78
2021/08/12 07:42:42;;;;;;;;;;;25.30;99.90;;;25.03;55.62;96124.94;10282794;28;2441;-78
2021/08/12 07:47:45;;;;;;;;;;;25.50;99.90;;;24.46;58.30;96140.84;10292721;28;2392;-79
2021/08/12 07:52:54;;;;;;;;;;;25.30;99.90;;;24.51;58.42;96134.28;10281979;28;2714;-79
2021/08/12 07:57:56;;;;;;;;;;;25.10;99.90;;;25.09;57.16;96126.28;10289276;28;2491;-79
2021/08/12 08:03:00;;;;;;;;;;;25.40;99.90;;;24.93;56.82;96126.25;10282753;28;2412;-81
2021/08/12 08:08:03;;;;;;;;;;;25.80;99.90;;;25.29;56.37;96127.91;10290354;28;2475;-81
2021/08/12 08:13:05;;;;;;;;;;;25.80;99.90;;;25.50;55.89;96132.25;10281389;28;2790;-83
2021/08/12 08:18:08;;;;;;;;;;;26.20;99.90;;;26.16;53.25;96130.47;10282558;28;2718;-80
2021/08/12 08:23:11;;;;;;;;;;;26.40;99.90;;;25.94;53.06;96118.22;10285526;28;2773;-80
2021/08/12 08:28:14;;;;;;;;;;;26.60;99.90;;;24.67;57.26;96134.28;10282240;28;2392;-81
2021/08/12 08:38:44;;;;;;;;;;;25.30;99.90;;;24.80;58.22;96133.03;10545764;27;1256640;-80
2021/08/12 08:43:47;;;;;;;;;;;25.30;99.90;;;25.61;55.51;96142.34;10535210;28;2607;-80
2021/08/12 08:48:50;;;;;;;;;;;25.70;99.90;;;26.36;52.70;96130.03;10529724;28;2361;-80
2021/08/12 08:53:53;;;;;;;;;;;26.40;99.90;;;26.43;51.68;96117.56;10528358;28;2289;-80
2021/08/12 08:58:59;;;;;;;;;;;26.80;99.90;;;26.27;50.95;96125.91;10536881;28;2330;-80
2021/08/12 09:04:16;;;;;;;;;;;26.80;99.90;;;27.10;49.30;96115.94;10544013;28;2468;-79
2021/08/12 09:09:18;;;;;;;;;;;27.20;99.90;;;26.71;50.96;96112.53;10523211;28;2315;-79
2021/08/12 09:14:21;;;;;;;;;;;27.40;99.90;;;26.81;51.81;96111.91;10532099;28;2344;-80
2021/08/12 09:19:36;;;;;;;;;;;27.40;99.90;;;26.66;52.66;96107.34;10516711;28;2718;-82
2021/08/12 09:24:39;;;;;;;;;;;27.40;99.90;;;26.99;51.10;96097.59;10515404;28;2368;-80
2021/08/12 09:29:43;;;;;;;;;;;27.40;99.90;;;26.91;50.04;96100.25;10531339;28;2439;-78
2021/08/12 09:34:46;;;;;;;;;;;27.50;99.90;;;27.21;49.52;96091.22;10539194;28;2278;-78
2021/08/12 09:39:49;;;;;;;;;;;27.70;99.90;;;27.56;48.00;96098.41;10525377;28;2322;-78
2021/08/12 09:44:52;;;;;;;;;;;28.00;99.90;;;27.07;48.00;96089.06;10546871;28;2315;-78
2021/08/12 09:49:55;;;;;;;;;;;28.00;99.90;;;27.51;47.71;96098.72;10492068;28;2328;-78
2021/08/12 09:54:58;;;;;;;;;;;28.10;99.90;;;27.61;46.07;96095.28;10493274;28;2636;-80
2021/08/12 10:00:01;;;;;;;;;;;28.30;99.90;;;27.41;47.48;96097.41;10510606;28;2330;-80
2021/08/12 10:05:04;;;;;;;;;;;28.30;99.90;;;26.91;49.07;96099.44;10494252;28;2752;-80
2021/08/12 10:10:07;;;;;;;;;;;27.80;99.90;;;26.26;49.63;96103.06;10502443;28;2340;-79
2021/08/12 10:15:09;;;;;;;;;;;27.70;99.90;;;25.70;51.16;96095.31;10493628;28;2586;-79
2021/08/12 10:20:12;;;;;;;;;;;27.20;99.90;;;25.88;49.53;96103.94;10506912;28;2358;-79
2021/08/12 10:25:15;;;;;;;;;;;26.70;99.90;;;26.49;48.71;96100.34;10501079;28;2724;-78
2021/08/12 10:30:18;;;;;;;;;;;27.20;99.90;;;26.62;49.00;96090.72;10505438;28;2497;-79
2021/08/12 10:35:20;;;;;;;;;;;27.20;99.90;;;26.27;49.35;96088.13;10508486;28;2754;-79
2021/08/12 10:40:23;;;;;;;;;;;27.40;99.90;;;26.29;49.27;96083.06;10504161;28;2617;-80
2021/08/12 10:45:26;;;;;;;;;;;27.60;99.90;;;27.34;46.69;96083.50;10498966;28;2343;-80
2021/08/12 10:50:30;;;;;;;;;;;27.90;99.90;;;26.24;49.26;96072.34;10504555;28;2963;-77
2021/08/12 10:55:33;;;;;;;;;;;27.80;99.90;;;26.01;49.88;96083.34;10498183;28;2517;-79
2021/08/12 11:00:36;;;;;;;;;;;27.60;99.90;;;26.98;46.39;96063.69;10493484;28;2396;-80
2021/08/12 11:05:39;;;;;;;;;;;27.80;99.90;;;26.48;47.39;96065.69;10508437;28;2335;-80
2021/08/12 11:10:43;;;;;;;;;;;27.50;99.90;;;26.43;48.02;96060.50;10476256;28;2416;-80
2021/08/12 11:15:50;;;;;;;;;;;27.90;99.90;;;26.83;47.54;96056.38;10498549;28;2435;-79
2021/08/12 11:20:53;;;;;;;;;;;29.00;99.90;;;26.57;47.18;96051.66;10496066;28;2403;-79
2021/08/12 11:25:55;;;;;;;;;;;28.00;99.90;;;26.40;48.13;96053.75;10479932;28;2697;-78
2021/08/12 11:30:58;;;;;;;;;;;27.70;99.90;;;26.35;48.13;96058.75;10491486;28;2764;-78
2021/08/12 11:36:01;;;;;;;;;;;27.50;99.90;;;26.73;47.13;96049.53;10476013;28;2462;-81
2021/08/12 11:41:03;;;;;;;;;;;27.70;99.90;;;27.20;45.59;96056.53;10491630;28;2337;-81
2021/08/12 11:46:06;;;;;;;;;;;27.90;99.90;;;27.65;43.85;96060.22;10509269;28;2622;-79
2021/08/12 11:51:09;;;;;;;;;;;28.40;99.90;;;27.79;44.04;96054.88;10513821;28;2477;-79
2021/08/12 11:56:12;;;;;;;;;;;28.50;99.90;;;28.16;44.63;96045.78;10536751;28;2719;-80
2021/08/12 12:01:15;;;;;;;;;;;28.80;99.90;;;28.23;43.95;96043.09;10534894;28;2693;-84
2021/08/12 12:06:18;;;;;;;;;;;29.00;99.90;;;28.80;42.12;96047.13;10509458;28;2323;-82
2021/08/12 12:11:20;;;;;;;;;;;29.30;99.90;;;28.58;42.26;96041.84;10523726;28;2488;-81
2021/08/12 12:16:23;;;;;;;;;;;29.50;99.90;;;28.69;41.60;96035.22;10481433;28;2489;-81
2021/08/12 12:21:26;;;;;;;;;;;29.60;99.90;;;28.61;41.74;96033.53;10503751;28;2296;-80
2021/08/12 12:26:28;;;;;;;;;;;29.50;99.90;;;28.83;42.26;96028.97;10500643;28;2287;-78
2021/08/12 12:31:31;;;;;;;;;;;29.60;99.90;;;29.05;40.95;96019.63;10500570;28;2261;-78
2021/08/12 12:36:34;;;;;;;;;;;29.70;99.90;;;29.87;40.26;96019.97;10507222;28;2732;-79
2021/08/12 12:41:37;;;;;;;;;;;30.10;99.90;;;27.99;43.99;96017.63;10480892;28;2245;-80
2021/08/12 12:46:40;;;;;;;;;;;29.90;99.90;;;29.49;39.28;96018.63;10505164;28;2297;-79
2021/08/12 12:51:42;;;;;;;;;;;30.00;99.90;;;28.40;42.75;96017.59;10487652;28;2233;-79
2021/08/12 12:56:45;;;;;;;;;;;29.70;99.90;;;29.21;40.80;96011.03;10477437;28;2261;-78
2021/08/12 13:01:49;;;;;;;;;;;29.90;99.90;;;29.06;41.55;96010.13;10510608;28;2641;-79
2021/08/12 13:06:52;;;;;;;;;;;29.90;99.90;;;28.14;43.46;96015.78;10512452;28;2318;-78
2021/08/12 13:11:55;;;;;;;;;;;29.90;99.90;;;29.61;40.13;96012.78;10512016;28;2464;-80
2021/08/12 13:16:58;;;;;;;;;;;30.10;99.90;;;30.46;38.08;96010.53;10489373;28;2332;-79
2021/08/12 13:22:02;;;;;;;;;;;30.60;99.00;;;30.49;38.88;96004.97;10510617;28;1957;-79
2021/08/12 13:27:05;;;;;;;;;;;31.10;98.40;;;30.36;37.62;96003.81;10506133;28;2300;-80
2021/08/12 13:32:09;;;;;;;;;;;31.10;96.10;;;30.51;38.52;96005.38;10494682;28;2125;-80
2021/08/12 13:37:12;;;;;;;;;;;31.10;96.70;;;30.04;39.10;96010.09;10510245;28;2300;-79
2021/08/12 13:42:17;;;;;;;;;;;31.00;96.30;;;30.04;38.53;96001.78;10509684;28;2319;-78
2021/08/12 13:47:20;;;;;;;;;;;30.80;95.60;;;29.88;38.48;95998.56;10510628;28;2077;-80
2021/08/12 13:52:23;;;;;;;;;;;30.90;94.40;;;30.03;38.27;96005.75;10507360;28;2037;-78
2021/08/12 13:57:25;;;;;;;;;;;30.70;94.40;;;30.20;38.56;95995.06;10514273;28;2397;-79
2021/08/12 14:02:29;;;;;;;;;;;30.90;94.60;;;30.15;37.29;96001.78;10521980;28;2419;-79
2021/08/12 14:07:32;;;;;;;;;;;30.90;92.70;;;30.10;37.42;96000.22;10521241;28;2352;-80
2021/08/12 14:12:36;;;;;;;;;;;30.90;92.30;;;29.87;37.38;95992.25;10521471;28;2371;-81
2021/08/12 14:17:39;;;;;;;;;;;30.80;92.00;;;29.91;39.12;95995.03;10506234;28;2385;-80
2021/08/12 14:22:42;;;;;;;;;;;30.70;92.80;;;29.65;39.33;95987.03;10518999;28;2112;-80
2021/08/12 14:27:47;;;;;;;;;;;30.60;92.80;;;29.46;39.24;95994.50;10525199;28;2351;-81
2021/08/12 14:32:50;;;;;;;;;;;30.50;92.70;;;29.49;39.53;95990.94;10509979;28;2355;-79
2021/08/12 14:37:53;;;;;;;;;;;30.50;93.50;;;28.24;42.97;95987.41;10512822;28;2453;-79
2021/08/12 14:42:57;;;;;;;;;;;30.20;94.10;;;28.21;42.30;95992.94;10488943;28;2427;-80
2021/08/12 14:48:00;;;;;;;;;;;29.80;94.10;;;28.99;40.23;95987.97;10516847;28;2376;-81
2021/08/12 14:53:03;;;;;;;;;;;29.70;93.50;;;29.29;38.68;95978.63;10514311;28;2402;-79
2021/08/12 14:58:07;;;;;;;;;;;30.10;92.20;;;29.94;37.87;95977.59;10506480;28;2319;-80
2021/08/12 15:03:10;;;;;;;;;;;30.50;91.40;;;30.18;36.30;95972.50;10489292;28;2423;-81
2021/08/12 15:08:14;;;;;;;;;;;30.80;89.00;;;29.59;37.78;95970.81;10509395;28;2456;-80
2021/08/12 15:13:18;;;;;;;;;;;30.70;89.50;;;29.21;38.22;95965.94;10510225;28;2368;-81
2021/08/12 15:18:21;;;;;;;;;;;30.30;89.60;;;30.40;35.22;95963.75;10508258;28;2383;-82
2021/08/12 15:23:23;;;;;;;;;;;30.80;87.60;;;31.02;35.49;95962.47;10524250;28;2383;-81
2021/08/12 15:28:26;;;;;;;;;;;31.30;87.90;;;30.52;36.51;95959.78;10517085;28;2371;-81
2021/08/12 15:33:30;;;;;;;;;;;31.40;87.70;;;30.59;36.51;95970.09;10501817;28;2517;-80
2021/08/12 15:38:32;;;;;;;;;;;31.30;88.30;;;29.96;38.24;95966.13;10507120;28;2434;-80
2021/08/12 15:43:35;;;;;;;;;;;31.10;88.60;;;30.10;38.26;95966.19;10514243;28;2386;-82
2021/08/12 15:48:38;;;;;;;;;;;30.90;88.90;;;29.73;38.44;95969.28;10513672;28;2412;-81
2021/08/12 15:53:40;;;;;;;;;;;30.80;88.40;;;29.53;39.51;95966.84;10519288;28;2431;-80
2021/08/12 15:58:43;;;;;;;;;;;30.50;89.70;;;29.87;38.96;95961.75;10511383;28;2367;-81
2021/08/12 16:03:46;;;;;;;;;;;30.50;90.00;;;29.30;39.49;95958.03;10507688;28;2328;-81
2021/08/12 16:08:48;;;;;;;;;;;30.40;89.70;;;29.28;40.90;95955.69;10502354;28;1970;-81
2021/08/12 16:13:51;;;;;;;;;;;30.10;91.20;;;28.99;41.02;95953.97;10513705;28;2334;-81
2021/08/12 16:18:54;;;;;;;;;;;29.90;91.20;;;28.71;41.87;95951.84;10514286;28;2343;-82
2021/08/12 16:23:56;;;;;;;;;;;29.80;91.80;;;28.65;42.17;95948.63;10528324;28;2240;-81
2021/08/12 16:28:59;;;;;;;;;;;29.50;92.40;;;28.51;42.91;95952.13;10526896;28;2437;-81
2021/08/12 16:34:02;;;;;;;;;;;29.50;93.10;;;28.45;43.12;95944.56;10505611;28;2641;-83
2021/08/12 16:39:04;;;;;;;;;;;29.30;93.70;;;28.38;42.84;95945.31;10512939;28;2458;-80
2021/08/12 16:44:07;;;;;;;;;;;29.20;93.40;;;28.21;43.14;95937.66;10511858;28;2596;-78
2021/08/12 16:49:10;;;;;;;;;;;29.10;93.70;;;28.28;42.76;95938.50;10519098;28;2741;-81
2021/08/12 16:54:13;;;;;;;;;;;29.00;93.90;;;27.93;43.45;95944.56;10500891;28;2309;-79
2021/08/12 16:59:16;;;;;;;;;;;28.90;93.40;;;28.00;43.61;95941.84;10512490;28;2487;-81
2021/08/12 17:04:18;;;;;;;;;;;28.80;94.00;;;27.65;44.38;95935.97;10509488;28;2391;-80
2021/08/12 17:09:21;;;;;;;;;;;28.60;94.50;;;27.59;44.10;95934.72;10510456;28;2692;-81
2021/08/12 17:14:24;;;;;;;;;;;28.50;94.50;;;27.50;44.94;95937.00;10504414;28;2558;-81
2021/08/12 17:19:27;;;;;;;;;;;28.40;95.20;;;27.50;45.35;95934.25;10510693;28;2505;-80
2021/08/12 17:24:29;;;;;;;;;;;28.30;95.90;;;27.43;45.27;95932.22;10515957;28;2528;-80
2021/08/12 17:29:32;;;;;;;;;;;28.20;96.00;;;27.31;45.64;95933.25;10489363;28;2385;-81
2021/08/12 17:34:35;;;;;;;;;;;28.20;96.30;;;27.12;46.49;95936.19;10516554;28;2363;-79
2021/08/12 17:39:37;;;;;;;;;;;28.00;96.80;;;27.02;47.17;95932.09;10517970;28;2391;-79
2021/08/12 17:44:40;;;;;;;;;;;27.90;97.00;;;27.02;47.27;95923.81;10511937;28;2751;-80
2021/08/12 17:49:46;;;;;;;;;;;27.80;97.60;;;26.93;47.85;95920.56;10487609;28;1951;-80
2021/08/12 17:54:49;;;;;;;;;;;27.80;98.30;;;26.80;48.44;95920.03;10487679;28;2407;-81
2021/08/12 17:59:51;;;;;;;;;;;27.70;99.00;;;26.70;49.18;95914.38;10525870;28;2662;-81
2021/08/12 18:04:54;;;;;;;;;;;27.60;99.70;;;26.54;49.33;95914.56;10511185;28;2376;-80
2021/08/12 18:09:59;;;;;;;;;;;27.40;99.90;;;26.32;50.42;95918.94;10477010;28;2381;-80
2021/08/12 18:15:02;;;;;;;;;;;27.30;99.90;;;26.23;51.38;95926.69;10494037;28;2401;-78
2021/08/12 18:20:05;;;;;;;;;;;27.10;99.90;;;26.04;52.09;95924.81;10469454;28;2724;-78
2021/08/12 18:25:08;;;;;;;;;;;27.00;99.90;;;25.83;53.51;95942.59;10492011;28;2688;-77
2021/08/12 18:30:11;;;;;;;;;;;26.80;99.90;;;25.64;54.64;95942.63;10482637;28;2385;-79
2021/08/12 18:35:13;;;;;;;;;;;26.70;99.90;;;25.53;55.32;95941.63;10480516;28;2473;-76
2021/08/12 18:40:16;;;;;;;;;;;26.50;99.90;;;25.24;56.34;95949.34;10491813;28;2213;-78
2021/08/12 18:45:19;;;;;;;;;;;26.30;99.90;;;25.12;57.60;95974.25;10480130;28;2273;-78
2021/08/12 18:50:22;;;;;;;;;;;26.20;99.90;;;24.89;58.28;95981.63;10513838;28;2379;-79
2021/08/12 18:55:24;;;;;;;;;;;26.00;99.90;;;24.76;59.43;95989.22;10490926;28;2468;-80
2021/08/12 19:00:27;;;;;;;;;;;25.80;99.90;;;24.67;59.86;95996.84;10514547;28;2371;-78
2021/08/12 19:05:30;;;;;;;;;;;25.70;99.90;;;24.52;60.74;96003.97;10518045;28;2130;-80
2021/08/12 19:10:33;;;;;;;;;;;25.60;99.90;;;24.40;61.65;96009.56;10515810;28;2190;-78
2021/08/12 19:15:37;;;;;;;;;;;25.40;99.90;;;24.15;62.41;96031.72;10514303;28;2341;-79
2021/08/12 19:20:40;;;;;;;;;;;25.30;99.90;;;24.00;63.72;96035.28;10512939;28;2334;-78
2021/08/12 19:25:42;;;;;;;;;;;25.10;99.90;;;23.86;64.43;96037.66;10498947;28;2555;-80
2021/08/12 19:30:45;;;;;;;;;;;25.00;99.90;;;23.77;65.14;96037.81;10501426;28;2474;-80
2021/08/12 19:35:48;;;;;;;;;;;24.80;99.90;;;23.70;65.65;96032.91;10500786;28;2280;-79
2021/08/12 19:40:50;;;;;;;;;;;24.70;99.90;;;23.64;67.10;96033.53;10503501;28;2238;-82
2021/08/12 19:45:53;;;;;;;;;;;24.70;99.90;;;23.45;67.59;96025.94;10475224;28;2353;-82
2021/08/12 19:50:56;;;;;;;;;;;24.50;99.90;;;23.37;68.21;96029.63;10483610;28;2368;-82
2021/08/12 19:55:58;;;;;;;;;;;24.40;99.90;;;23.28;68.85;96037.19;10505733;28;2407;-79
2021/08/12 20:01:01;;;;;;;;;;;24.30;99.90;;;23.20;69.27;96039.75;10492551;28;2301;-79
2021/08/12 20:06:04;;;;;;;;;;;24.30;99.90;;;23.10;69.84;96042.19;10508638;28;2095;-78
2021/08/12 20:11:07;;;;;;;;;;;24.10;99.90;;;23.04;70.37;96032.63;10500541;28;2291;-81
2021/08/12 20:16:10;;;;;;;;;;;24.10;99.90;;;22.96;70.80;96031.59;10502643;28;2277;-79
2021/08/12 20:21:12;;;;;;;;;;;24.00;99.90;;;22.93;71.85;96026.81;10498590;28;2424;-81
2021/08/12 20:26:15;;;;;;;;;;;24.00;99.90;;;22.75;71.95;96034.47;10500697;28;2197;-81
2021/08/12 20:31:18;;;;;;;;;;;23.90;99.90;;;22.61;72.80;96042.25;10507348;28;2260;-80
2021/08/12 20:36:21;;;;;;;;;;;23.70;99.90;;;22.61;73.34;96040.31;10500963;28;2380;-80
2021/08/12 20:41:24;;;;;;;;;;;23.60;99.90;;;22.47;73.62;96039.09;10497372;28;2391;-80
2021/08/12 20:46:27;;;;;;;;;;;23.50;99.90;;;22.35;74.43;96046.16;10483930;28;2299;-79
2021/08/12 20:51:29;;;;;;;;;;;23.40;99.90;;;22.36;74.43;96041.47;10477839;28;2381;-81
2021/08/12 20:56:36;;;;;;;;;;;23.40;99.90;;;22.21;74.65;96050.38;10508474;28;2751;-78
2021/08/12 21:01:39;;;;;;;;;;;23.30;99.90;;;22.09;75.87;96048.44;10477022;28;2206;-80
2021/08/12 21:06:42;;;;;;;;;;;23.20;99.90;;;22.08;75.95;96042.13;10506597;28;2349;-80
2021/08/12 21:11:44;;;;;;;;;;;23.10;99.90;;;22.02;76.23;96032.53;10508292;28;2261;-80
2021/08/12 21:16:47;;;;;;;;;;;23.00;99.90;;;21.99;76.69;96049.63;10509452;28;2387;-80
2021/08/12 21:21:50;;;;;;;;;;;23.00;99.90;;;21.96;77.43;96047.59;10510118;28;2326;-81
2021/08/12 21:26:53;;;;;;;;;;;23.00;99.90;;;21.90;78.20;96034.47;10509198;28;2287;-80
2021/08/12 21:31:55;;;;;;;;;;;22.90;99.90;;;21.83;78.73;96040.50;10501216;28;2320;-80
2021/08/12 21:36:58;;;;;;;;;;;22.90;99.90;;;21.76;79.24;96040.25;10499662;28;2214;-80
2021/08/12 21:42:02;;;;;;;;;;;22.80;99.90;;;21.74;79.64;96037.81;10497099;28;2232;-79
2021/08/12 21:47:05;;;;;;;;;;;22.80;99.90;;;21.70;79.08;96044.34;10513036;28;2264;-81
2021/08/12 21:52:07;;;;;;;;;;;22.70;99.90;;;21.61;79.37;96044.41;10523617;28;2385;-79
2021/08/12 21:57:10;;;;;;;;;;;22.60;99.90;;;21.56;79.58;96047.34;10521449;28;2276;-80
2021/08/12 22:02:13;;;;;;;;;;;22.60;99.90;;;21.49;80.12;96064.31;10509194;28;2438;-80
2021/08/12 22:07:16;;;;;;;;;;;22.50;99.90;;;21.45;80.91;96077.06;10498885;28;2308;-80
2021/08/12 22:12:19;;;;;;;;;;;22.50;99.90;;;21.40;81.10;96074.53;10514873;28;2260;-80
2021/08/12 22:17:21;;;;;;;;;;;22.40;99.90;;;21.40;82.39;96073.75;10484537;28;2282;-81
2021/08/12 22:22:24;;;;;;;;;;;22.40;99.90;;;21.46;82.92;96086.06;10499086;28;2195;-81
2021/08/12 22:27:27;;;;;;;;;;;22.40;99.90;;;21.47;82.23;96084.94;10507361;28;2312;-79
2021/08/12 22:32:29;;;;;;;;;;;22.40;99.90;;;21.41;82.86;96089.81;10504883;28;2232;-81
2021/08/12 22:37:32;;;;;;;;;;;22.40;99.90;;;21.29;82.61;96095.22;10510089;28;2272;-79
2021/08/12 22:42:35;;;;;;;;;;;22.30;99.90;;;21.27;83.33;96090.06;10500322;28;2227;-79
2021/08/12 22:47:37;;;;;;;;;;;22.20;99.90;;;21.21;83.84;96096.06;10491250;28;2283;-81
2021/08/12 22:52:40;;;;;;;;;;;22.20;99.90;;;21.14;83.36;96091.13;10501718;28;2321;-79
2021/08/12 22:57:43;;;;;;;;;;;22.10;99.90;;;21.11;83.97;96083.59;10497993;28;2303;-81
2021/08/12 23:02:45;;;;;;;;;;;22.10;99.90;;;21.04;85.35;96080.59;10507643;28;2268;-80
2021/08/12 23:07:50;;;;;;;;;;;22.00;99.90;;;20.96;86.14;96090.47;10499943;28;2354;-80
2021/08/12 23:12:53;;;;;;;;;;;22.00;99.90;;;20.92;85.85;96085.97;10508998;28;2430;-81
2021/08/12 23:17:56;;;;;;;;;;;21.90;99.90;;;20.89;86.67;96081.19;10508082;28;2336;-80